createdAt,value
2022-11-03T00:02:35.454Z,99634.44
2022-11-03T00:05:57.551Z,99637.20
2022-11-03T00:09:05.828Z,99632.86
2022-11-03T00:12:11.991Z,99629.04
2022-11-03T00:15:16.555Z,99635.15
2022-11-03T00:18:22.795Z,99635.28
2022-11-03T00:21:27.349Z,99634.56
2022-11-03T00:24:33.484Z,99638.02
2022-11-03T00:27:37.950Z,99634.25
2022-11-03T00:30:44.198Z,99636.43
2022-11-03T00:33:49.044Z,99640.73
2022-11-03T00:36:55.270Z,99646.29
2022-11-03T00:39:59.923Z,99648.98
2022-11-03T00:43:06.500Z,99652.35
2022-11-03T00:46:13.452Z,99651.84
2022-11-03T00:49:19.500Z,99650.88
2022-11-03T00:52:25.677Z,99651.66
2022-11-03T00:55:30.141Z,99653.87
2022-11-03T00:58:36.600Z,99648.85
2022-11-03T01:01:47.162Z,99643.99
2022-11-03T01:05:11.252Z,99642.75
2022-11-03T01:08:17.396Z,99642.52
2022-11-03T01:11:40.272Z,99642.21
2022-11-03T01:14:48.457Z,99641.73
2022-11-03T01:17:54.532Z,99645.55
2022-11-03T01:21:00.977Z,99650.31
2022-11-03T01:24:07.796Z,99652.02
2022-11-03T01:27:15.821Z,99652.27
2022-11-03T01:30:21.935Z,99656.02
2022-11-03T01:33:28.009Z,99654.60
2022-11-03T01:36:34.239Z,99655.04
2022-11-03T01:39:38.743Z,99654.41
2022-11-03T01:42:44.879Z,99651.70
2022-11-03T01:45:54.527Z,99650.00
2022-11-03T01:49:04.208Z,99651.05
2022-11-03T01:52:15.258Z,99650.52
2022-11-03T01:55:24.698Z,99651.23
2022-11-03T01:58:34.844Z,99655.08
2022-11-03T02:01:41.317Z,99648.73
2022-11-03T02:04:48.451Z,99648.67
2022-11-03T02:08:00.209Z,99655.05
2022-11-03T02:11:27.047Z,99651.92
2022-11-03T02:14:33.173Z,99647.63
2022-11-03T02:17:41.212Z,99650.46
2022-11-03T02:20:50.158Z,99647.38
2022-11-03T02:24:04.219Z,99649.15
2022-11-03T02:27:10.688Z,99651.91
2022-11-03T02:30:16.885Z,99654.91
2022-11-03T02:33:32.006Z,99660.08
2022-11-03T02:36:43.494Z,99659.73
2022-11-03T02:39:54.062Z,99662.25
2022-11-03T02:43:02.473Z,99661.77
2022-11-03T02:46:09.754Z,99661.36
2022-11-03T02:49:15.801Z,99661.81
2022-11-03T02:52:40.840Z,99665.61
2022-11-03T02:55:55.396Z,99665.63
2022-11-03T02:59:06.298Z,99664.15
2022-11-03T03:02:29.077Z,99667.49
2022-11-03T03:05:37.813Z,99672.16
2022-11-03T03:08:49.653Z,99673.88
2022-11-03T03:11:57.756Z,99673.51
2022-11-03T03:15:07.318Z,99674.15
2022-11-03T03:18:22.063Z,99672.08
2022-11-03T03:21:33.949Z,99670.99
2022-11-03T03:24:49.273Z,99670.58
2022-11-03T03:28:02.275Z,99671.02
2022-11-03T03:31:14.691Z,99672.60
2022-11-03T03:34:34.562Z,99672.15
2022-11-03T03:37:46.769Z,99674.56
2022-11-03T03:40:56.947Z,99676.06
2022-11-03T03:44:07.498Z,99674.63
2022-11-03T03:47:19.294Z,99672.33
2022-11-03T03:50:27.916Z,99669.27
2022-11-03T03:53:34.159Z,99671.39
2022-11-03T03:56:48.778Z,99674.17
2022-11-03T03:59:55.006Z,99674.64
2022-11-03T04:03:01.393Z,99669.92
2022-11-03T04:06:05.898Z,99667.89
2022-11-03T04:09:12.136Z,99670.09
2022-11-03T04:12:35.841Z,99668.13
2022-11-03T04:15:59.407Z,99661.73
2022-11-03T04:19:23.084Z,99665.93
2022-11-03T04:22:31.912Z,99666.02
2022-11-03T04:25:38.065Z,99666.98
2022-11-03T04:28:44.850Z,99666.10
2022-11-03T04:31:51.062Z,99665.80
2022-11-03T04:34:57.296Z,99665.46
2022-11-03T04:38:10.822Z,99661.30
2022-11-03T04:41:19.513Z,99662.08
2022-11-03T04:44:25.778Z,99662.81
2022-11-03T04:47:33.215Z,99658.13
2022-11-03T04:50:42.867Z,99657.53
2022-11-03T04:53:56.436Z,99658.86
2022-11-03T04:57:06.357Z,99663.45
2022-11-03T05:00:18.366Z,99665.38
2022-11-03T05:03:26.802Z,99667.22
2022-11-03T05:06:32.889Z,99669.92
2022-11-03T05:09:42.719Z,99666.27
2022-11-03T05:12:50.349Z,99666.29
2022-11-03T05:16:01.775Z,99667.71
2022-11-03T05:19:14.279Z,99674.02
2022-11-03T05:22:23.625Z,99678.48
2022-11-03T05:25:43.618Z,99681.83
2022-11-03T05:28:52.054Z,99683.78
2022-11-03T05:31:59.033Z,99682.98
2022-11-03T05:35:05.586Z,99679.64
2022-11-03T05:38:17.255Z,99679.15
2022-11-03T05:41:27.316Z,99674.95
2022-11-03T05:44:37.110Z,99672.80
2022-11-03T05:47:43.753Z,99675.56
2022-11-03T05:50:49.897Z,99670.14
2022-11-03T05:53:59.380Z,99674.38
2022-11-03T05:57:09.803Z,99671.77
2022-11-03T06:00:29.235Z,99675.02
2022-11-03T06:03:38.905Z,99678.45
2022-11-03T06:06:48.369Z,99681.42
2022-11-03T06:09:55.174Z,99679.64
2022-11-03T06:13:07.526Z,99677.63
2022-11-03T06:16:33.498Z,99679.59
2022-11-03T06:19:41.624Z,99680.74
2022-11-03T06:22:48.664Z,99687.42
2022-11-03T06:25:56.905Z,99679.14
2022-11-03T06:29:03.154Z,99681.91
2022-11-03T06:32:13.982Z,99681.63
2022-11-03T06:35:21.215Z,99679.22
2022-11-03T06:38:30.872Z,99680.71
2022-11-03T06:41:39.991Z,99682.99
2022-11-03T06:44:48.798Z,99682.38
2022-11-03T06:47:55.691Z,99684.51
2022-11-03T06:51:02.243Z,99685.96
2022-11-03T06:54:12.946Z,99686.75
2022-11-03T06:57:20.190Z,99686.26
2022-11-03T07:00:37.762Z,99687.22
2022-11-03T07:03:46.696Z,99691.09
2022-11-03T07:06:53.842Z,99690.64
2022-11-03T07:10:00.130Z,99692.95
2022-11-03T07:13:15.015Z,99694.84
2022-11-03T07:16:25.788Z,99695.88
2022-11-03T07:19:36.142Z,99689.04
2022-11-03T07:22:42.222Z,99683.16
2022-11-03T07:25:51.140Z,99686.63
2022-11-03T07:28:58.125Z,99677.61
2022-11-03T07:32:11.566Z,99674.83
2022-11-03T07:35:46.907Z,99673.84
2022-11-03T07:39:01.280Z,99667.04
2022-11-03T07:42:16.753Z,99665.02
2022-11-03T07:45:41.176Z,99658.81
2022-11-03T07:48:49.402Z,99658.65
2022-11-03T07:51:56.647Z,99654.46
2022-11-03T07:55:02.781Z,99651.36
2022-11-03T07:58:22.501Z,99648.83
2022-11-03T08:01:34.200Z,99646.98
2022-11-03T08:04:40.620Z,99643.02
2022-11-03T08:07:46.999Z,99637.20
2022-11-03T08:10:51.462Z,99633.70
2022-11-03T08:13:58.017Z,99627.77
2022-11-03T08:17:04.161Z,99622.67
2022-11-03T08:20:11.713Z,99620.33
2022-11-03T08:23:25.707Z,99611.33
2022-11-03T08:26:32.914Z,99604.86
2022-11-03T08:29:39.146Z,99598.63
2022-11-03T08:32:45.511Z,99590.77
2022-11-03T08:35:49.964Z,99583.11
2022-11-03T08:38:56.111Z,99577.84
2022-11-03T08:42:02.364Z,99574.96
2022-11-03T08:45:07.836Z,99571.49
2022-11-03T08:48:14.204Z,99571.20
2022-11-03T08:51:18.745Z,99568.31
2022-11-03T08:54:25.098Z,99566.51
2022-11-03T08:57:29.561Z,99563.33
2022-11-03T09:00:40.742Z,99559.74
2022-11-03T09:03:47.509Z,99553.58
2022-11-03T09:06:52.112Z,99542.98
2022-11-03T09:13:24.299Z,99537.20
2022-11-03T09:16:30.492Z,99538.86
2022-11-03T09:19:36.609Z,99537.67
2022-11-03T09:22:42.762Z,99531.31
2022-11-03T09:25:48.837Z,99529.75
2022-11-03T09:28:54.971Z,99520.08
2022-11-03T09:32:01.079Z,99520.55
2022-11-03T09:35:09.091Z,99517.87
2022-11-03T09:38:15.230Z,99514.41
2022-11-03T09:41:27.688Z,99514.73
2022-11-03T09:44:50.602Z,99507.96
2022-11-03T09:47:57.554Z,99505.02
2022-11-03T09:51:03.998Z,99502.39
2022-11-03T09:54:13.325Z,99495.13
2022-11-03T09:57:20.113Z,99488.10
2022-11-03T10:00:27.495Z,99487.75
2022-11-03T10:03:33.965Z,99484.41
2022-11-03T10:06:40.293Z,99482.73
2022-11-03T10:09:49.967Z,99478.54
2022-11-03T10:12:56.514Z,99480.27
2022-11-03T10:16:05.334Z,99473.42
2022-11-03T10:19:15.305Z,99463.44
2022-11-03T10:22:22.450Z,99457.39
2022-11-03T10:25:40.163Z,99458.71
2022-11-03T10:29:00.802Z,99454.86
2022-11-03T10:32:27.090Z,99451.45
2022-11-03T10:35:37.441Z,99452.60
2022-11-03T10:38:44.436Z,99443.93
2022-11-03T10:41:59.413Z,99437.66
2022-11-03T10:45:18.227Z,99434.81
2022-11-03T10:48:26.446Z,99430.89
2022-11-03T10:51:32.738Z,99427.10
2022-11-03T10:54:39.682Z,99420.94
2022-11-03T10:57:50.539Z,99413.80
2022-11-03T11:00:59.260Z,99407.67
2022-11-03T11:04:05.863Z,99404.52
2022-11-03T11:07:25.089Z,99393.60
2022-11-03T11:10:32.717Z,99388.91
2022-11-03T11:13:38.764Z,99379.79
2022-11-03T11:16:56.002Z,99373.60
2022-11-03T11:20:35.688Z,99364.71
2022-11-03T11:23:49.597Z,99359.41
2022-11-03T11:26:55.868Z,99352.09
2022-11-03T11:30:02.256Z,99344.08
2022-11-03T11:33:23.691Z,99342.88
2022-11-03T11:36:29.918Z,99339.51
2022-11-03T11:39:49.462Z,99327.45
2022-11-03T11:43:28.903Z,99320.92
2022-11-03T11:46:42.515Z,99315.77
2022-11-03T11:49:48.722Z,99309.17
2022-11-03T11:52:59.825Z,99304.73
2022-11-03T11:56:06.607Z,99299.79
2022-11-03T11:59:24.616Z,99296.45
2022-11-03T12:02:32.792Z,99285.98
2022-11-03T12:05:39.145Z,99280.13
2022-11-03T12:08:46.246Z,99275.58
2022-11-03T12:11:55.613Z,99274.66
2022-11-03T12:15:02.735Z,99271.02
2022-11-03T12:18:36.424Z,99262.92
2022-11-03T12:21:55.850Z,99250.88
2022-11-03T12:25:04.238Z,99244.70
2022-11-03T12:28:10.609Z,99236.31
2022-11-03T12:31:16.788Z,99232.04
2022-11-03T12:34:21.242Z,99227.51
2022-11-03T12:37:27.458Z,99221.87
2022-11-03T12:40:33.531Z,99218.38
2022-11-03T12:43:37.995Z,99213.21
2022-11-03T12:46:44.110Z,99206.07
2022-11-03T12:49:48.665Z,99208.27
2022-11-03T12:52:54.803Z,99198.14
2022-11-03T12:55:59.304Z,99191.84
2022-11-03T12:59:05.419Z,99189.33
2022-11-03T13:02:11.397Z,99186.77
2022-11-03T13:05:17.909Z,99184.33
2022-11-03T13:08:24.739Z,99182.74
2022-11-03T13:11:48.607Z,99183.55
2022-11-03T13:15:12.589Z,99181.80
2022-11-03T13:18:19.168Z,99173.48
2022-11-03T13:21:25.196Z,99173.40
2022-11-03T13:24:29.749Z,99169.14
2022-11-03T13:27:35.980Z,99166.39
2022-11-03T13:30:42.079Z,99161.64
2022-11-03T13:33:46.628Z,99157.96
2022-11-03T13:36:52.742Z,99151.47
2022-11-03T13:39:57.208Z,99145.85
2022-11-03T13:43:03.398Z,99142.77
2022-11-03T13:46:09.699Z,99138.61
2022-11-03T13:49:59.471Z,99135.23
2022-11-03T13:52:42.344Z,99131.80
2022-11-03T13:55:48.809Z,99131.04
2022-11-03T14:05:47.778Z,99125.85
2022-11-03T14:08:54.123Z,99125.08
2022-11-03T14:12:18.189Z,99118.65
2022-11-03T14:15:24.347Z,99114.60
2022-11-03T14:18:30.477Z,99113.80
2022-11-03T14:21:37.945Z,99111.16
2022-11-03T14:24:44.552Z,99104.93
2022-11-03T14:27:50.865Z,99101.94
2022-11-03T14:30:59.987Z,99096.82
2022-11-03T14:34:06.254Z,99092.46
2022-11-03T14:37:13.488Z,99094.95
2022-11-03T14:40:33.631Z,99095.58
2022-11-03T14:43:39.880Z,99093.66
2022-11-03T14:46:45.887Z,99093.17
2022-11-03T14:49:52.549Z,99088.05
2022-11-03T14:52:59.975Z,99082.52
2022-11-03T14:56:06.608Z,99079.06
2022-11-03T14:59:12.729Z,99073.60
2022-11-03T15:02:17.402Z,99068.90
2022-11-03T15:05:46.701Z,99064.83
2022-11-03T15:08:56.358Z,99068.05
2022-11-03T15:12:02.897Z,99063.33
2022-11-03T15:15:09.083Z,99063.44
2022-11-03T15:18:15.326Z,99061.92
2022-11-03T15:21:21.411Z,99057.06
2022-11-03T15:27:53.706Z,99051.36
2022-11-03T15:30:58.141Z,99046.66
2022-11-03T15:34:07.676Z,99047.84
2022-11-03T15:37:15.758Z,99042.63
2022-11-03T15:40:21.809Z,99042.90
2022-11-03T15:43:27.854Z,99039.82
2022-11-03T15:46:35.876Z,99040.77
2022-11-03T15:49:42.070Z,99042.10
2022-11-03T15:52:48.113Z,99037.81
2022-11-03T15:55:54.267Z,99037.87
2022-11-03T15:58:58.762Z,99038.59
2022-11-03T16:02:20.151Z,99040.83
2022-11-03T16:05:30.990Z,99042.89
2022-11-03T16:08:35.546Z,99044.18
2022-11-03T16:11:41.755Z,99041.12
2022-11-03T16:14:46.260Z,99040.02
2022-11-03T16:17:52.353Z,99037.88
2022-11-03T16:20:58.365Z,99035.78
2022-11-03T16:24:04.524Z,99032.11
2022-11-03T16:27:09.839Z,99028.73
2022-11-03T16:30:16.799Z,99027.11
2022-11-03T16:33:23.013Z,99018.36
2022-11-03T16:36:27.641Z,99011.90
2022-11-03T16:39:34.101Z,99013.84
2022-11-03T16:42:40.134Z,99011.55
2022-11-03T16:45:46.214Z,99010.01
2022-11-03T16:48:52.287Z,99006.09
2022-11-03T16:51:58.787Z,99004.77
2022-11-03T16:55:05.373Z,99000.63
2022-11-03T16:58:11.468Z,98995.32
2022-11-03T17:01:17.604Z,98989.27
2022-11-03T17:04:24.270Z,98988.48
2022-11-03T17:07:30.438Z,98985.09
2022-11-03T17:10:35.869Z,98983.02
2022-11-03T17:13:42.231Z,98977.87
2022-11-03T17:16:47.336Z,98981.55
2022-11-03T17:19:53.401Z,98984.34
2022-11-03T17:22:59.526Z,98985.63
2022-11-03T17:26:06.473Z,98988.02
2022-11-03T17:29:16.624Z,98982.48
2022-11-03T17:32:26.706Z,98977.77
2022-11-03T17:35:39.509Z,98970.48
2022-11-03T17:38:46.049Z,98968.53
2022-11-03T17:41:52.208Z,98967.55
2022-11-03T17:44:59.499Z,98962.14
2022-11-03T17:48:06.234Z,98953.73
2022-11-03T17:51:13.834Z,98943.20
2022-11-03T17:54:20.171Z,98936.75
2022-11-03T17:57:24.809Z,98929.64
2022-11-03T18:00:31.270Z,98923.30
2022-11-03T18:03:37.894Z,98917.53
2022-11-03T18:06:45.646Z,98913.02
2022-11-03T18:09:51.806Z,98908.60
2022-11-03T18:13:19.888Z,98900.52
2022-11-03T18:16:26.256Z,98895.64
2022-11-03T18:19:33.446Z,98893.42
2022-11-03T18:22:39.635Z,98888.02
2022-11-03T18:25:46.196Z,98888.49
2022-11-03T18:28:53.116Z,98886.32
2022-11-03T18:32:01.186Z,98890.59
2022-11-03T18:35:15.527Z,98886.84
2022-11-03T18:38:23.353Z,98879.56
2022-11-03T18:41:39.732Z,98886.27
2022-11-03T18:44:46.821Z,98879.52
2022-11-03T18:47:54.237Z,98873.29
2022-11-03T18:51:00.336Z,98873.30
2022-11-03T18:54:07.162Z,98872.59
2022-11-03T18:57:14.553Z,98866.65
2022-11-03T19:00:23.589Z,98852.21
2022-11-03T19:03:30.490Z,98840.92
2022-11-03T19:06:37.593Z,98830.86
2022-11-03T19:09:44.982Z,98822.90
2022-11-03T19:12:51.202Z,98814.96
2022-11-03T19:15:58.209Z,98811.50
2022-11-03T19:19:04.234Z,98811.03
2022-11-03T19:22:14.398Z,98808.17
2022-11-03T19:25:20.681Z,98802.77
2022-11-03T19:28:25.860Z,98798.96
2022-11-03T19:31:35.777Z,98786.85
2022-11-03T19:34:43.414Z,98780.65
2022-11-03T19:37:51.165Z,98777.45
2022-11-03T19:41:15.041Z,98772.15
2022-11-03T19:44:21.101Z,98766.16
2022-11-03T19:48:10.504Z,98763.22
2022-11-03T19:51:15.579Z,98764.20
2022-11-03T19:54:24.856Z,98762.45
2022-11-03T19:57:31.100Z,98756.81
2022-11-03T20:00:37.102Z,98761.64
2022-11-03T20:03:43.347Z,98758.89
2022-11-03T20:06:49.825Z,98755.63
2022-11-03T20:09:56.120Z,98752.73
2022-11-03T20:13:00.917Z,98748.83
2022-11-03T20:16:11.833Z,98746.35
2022-11-03T20:19:17.920Z,98740.86
2022-11-03T20:22:29.024Z,98735.64
2022-11-03T20:25:37.246Z,98730.28
2022-11-03T20:28:43.741Z,98727.02
2022-11-03T20:31:49.952Z,98721.20
2022-11-03T20:34:56.841Z,98718.89
2022-11-03T20:38:03.133Z,98714.18
2022-11-03T20:41:16.435Z,98711.22
2022-11-03T20:44:23.965Z,98701.20
2022-11-03T20:47:32.784Z,98699.30
2022-11-03T20:50:39.516Z,98694.30
2022-11-03T20:53:46.341Z,98691.55
2022-11-03T20:56:52.421Z,98690.65
2022-11-03T20:59:58.577Z,98688.23
2022-11-03T21:03:21.078Z,98686.73
2022-11-03T21:06:37.625Z,98680.74
2022-11-03T21:09:44.220Z,98675.75
2022-11-03T21:12:50.994Z,98676.99
2022-11-03T21:16:24.133Z,98676.16
2022-11-03T21:19:55.841Z,98674.70
2022-11-03T21:23:01.974Z,98665.94
2022-11-03T21:26:10.529Z,98661.41
2022-11-03T21:29:27.513Z,98653.35
2022-11-03T21:32:39.303Z,98650.95
2022-11-03T21:35:46.826Z,98644.38
2022-11-03T21:38:52.960Z,98642.31
2022-11-03T21:42:17.789Z,98637.91
2022-11-03T21:45:24.163Z,98634.55
2022-11-03T21:48:46.194Z,98630.20
2022-11-03T21:51:52.325Z,98627.42
2022-11-03T21:54:58.634Z,98625.41
2022-11-03T21:58:04.498Z,98620.53
2022-11-03T22:01:11.244Z,98619.58
2022-11-03T22:04:17.394Z,98614.23
2022-11-03T22:07:24.046Z,98612.42
2022-11-03T22:10:30.209Z,98613.36
2022-11-03T22:13:36.298Z,98604.64
2022-11-03T22:16:42.804Z,98599.05
2022-11-03T22:20:06.777Z,98595.96
2022-11-03T22:23:32.781Z,98596.90
2022-11-03T22:27:00.069Z,98595.86
2022-11-03T22:30:25.581Z,98592.10
2022-11-03T22:33:51.816Z,98586.61
2022-11-03T22:36:57.881Z,98581.39
2022-11-03T22:40:21.758Z,98580.19
2022-11-03T22:43:46.147Z,98571.14
2022-11-03T22:46:52.173Z,98565.80
2022-11-03T22:49:58.229Z,98567.92
2022-11-03T22:53:24.403Z,98566.91
2022-11-03T22:56:31.529Z,98563.94
2022-11-03T22:59:37.597Z,98559.25
2022-11-03T23:02:44.324Z,98556.08
2022-11-03T23:05:50.491Z,98554.38
2022-11-03T23:08:57.727Z,98551.07
2022-11-03T23:12:03.929Z,98544.36
2022-11-03T23:15:29.364Z,98542.55
2022-11-03T23:18:53.035Z,98539.07
2022-11-03T23:21:59.510Z,98538.19
2022-11-03T23:25:05.993Z,98541.48
2022-11-03T23:28:12.105Z,98535.80
2022-11-03T23:31:18.508Z,98529.52
2022-11-03T23:34:24.880Z,98530.91
2022-11-03T23:37:29.506Z,98527.81
2022-11-03T23:40:36.305Z,98517.61
2022-11-03T23:43:43.133Z,98515.55
2022-11-03T23:47:06.636Z,98512.42
2022-11-03T23:50:13.025Z,98510.10
2022-11-03T23:53:17.541Z,98504.04
2022-11-03T23:56:42.945Z,98498.60
2022-11-03T23:59:49.163Z,98492.55
